Time;durP1;ratioP1;P1;durP2;ratioP2;P2;SDS_P1;SDS_P2;PMS_P1;PMS_P2;Temp;Humidity;BMP_temperature;BMP_pressure;BME280_temperature;BME280_humidity;BME280_pressure;Samples;Min_cycle;Max_cycle;Signal;HPM_P1;HPM_P2
2022/07/28 00:01:10;;;;;;;10.07;1.70;;;11.60;99.90;;;10.45;93.90;101463.22;4939038;28;20056;-80
2022/07/28 00:03:36;;;;;;;14.10;1.90;;;11.60;99.90;;;10.42;94.09;101471.22;4932708;28;20176;-81
2022/07/28 00:06:06;;;;;;;14.98;2.40;;;11.50;99.90;;;10.38;94.24;101467.84;4930437;28;20057;-80
2022/07/28 00:08:32;;;;;;;7.63;2.08;;;11.50;99.90;;;10.36;93.81;101476.69;4949316;28;20057;-80
2022/07/28 00:10:57;;;;;;;16.77;2.05;;;11.50;99.90;;;10.31;94.12;101468.97;4927828;28;20455;-80
2022/07/28 00:13:23;;;;;;;6.93;1.60;;;11.40;99.90;;;10.30;94.36;101479.53;4954451;28;20054;-82
2022/07/28 00:15:49;;;;;;;17.35;2.22;;;11.40;99.90;;;10.25;94.33;101474.41;4946399;28;20066;-81
2022/07/28 00:18:15;;;;;;;8.55;2.05;;;11.30;99.90;;;10.24;94.46;101475.31;4968442;28;20120;-81
2022/07/28 00:20:45;;;;;;;12.45;2.25;;;11.30;99.90;;;10.26;94.48;101477.00;4982337;28;20569;-80
2022/07/28 00:23:11;;;;;;;9.52;2.00;;;11.40;99.90;;;10.32;94.89;101473.31;4942108;28;20041;-80
2022/07/28 00:25:37;;;;;;;6.47;1.90;;;11.40;99.90;;;10.40;94.90;101470.44;4938054;28;20110;-80
2022/07/28 00:28:02;;;;;;;;;;;11.50;99.90;;;10.45;95.53;101477.28;4943612;28;20130;-81
2022/07/28 00:30:29;;;;;;;10.48;2.67;;;11.60;99.90;;;10.52;94.97;101474.41;4938294;28;20484;-80
2022/07/28 00:32:55;;;;;;;10.32;2.35;;;11.60;99.90;;;10.60;94.38;101475.84;4955904;28;20035;-80
2022/07/28 00:35:30;;;;;;;14.63;2.20;;;11.70;99.90;;;10.69;94.79;101477.34;4926647;28;20558;-80
2022/07/28 00:37:56;;;;;;;12.05;2.00;;;11.80;99.90;;;10.77;94.82;101474.41;4915808;28;20367;-81
2022/07/28 00:41:09;;;;;;;7.78;1.90;;;11.80;99.90;;;10.84;94.05;101481.19;4936584;28;20031;-81
2022/07/28 00:43:09;;;;;;;8.73;1.80;;;11.90;99.90;;;10.88;94.75;101475.78;4945764;28;20034;-80
2022/07/28 00:45:35;;;;;;;12.15;2.00;;;11.90;99.90;;;10.91;94.52;101480.06;4904359;28;20033;-81
2022/07/28 00:48:01;;;;;;;16.33;2.08;;;11.90;99.90;;;10.93;94.52;101472.06;4952764;28;20034;-81
2022/07/28 00:50:27;;;;;;;12.25;1.83;;;12.00;99.90;;;10.97;94.65;101478.97;4962887;28;20041;-81
2022/07/28 00:52:54;;;;;;;10.75;2.05;;;12.00;99.90;;;10.98;94.83;101473.66;4909416;28;20036;-81
2022/07/28 00:55:29;;;;;;;7.30;1.75;;;12.00;99.90;;;11.04;94.70;101477.84;4936936;28;20486;-80
2022/07/28 00:57:55;;;;;;;11.45;1.92;;;12.00;99.90;;;11.05;94.66;101479.53;4945146;28;20050;-81
2022/07/28 01:00:21;;;;;;;9.85;2.20;;;12.10;99.90;;;11.07;94.92;101483.84;4962093;28;20046;-81
2022/07/28 01:02:47;;;;;;;10.82;1.95;;;12.10;99.90;;;11.08;95.08;101484.72;4981347;28;20061;-80
2022/07/28 01:05:21;;;;;;;13.18;1.65;;;12.10;99.90;;;11.09;94.58;101492.56;4965854;28;20046;-81
2022/07/28 01:08:35;;;;;;;8.30;1.60;;;12.10;99.90;;;11.10;94.81;101493.44;4934001;28;20094;-81
2022/07/28 01:11:26;;;;;;;11.35;1.65;;;12.10;99.90;;;11.05;95.75;101492.72;4904788;28;20030;-81
2022/07/28 01:14:20;;;;;;;12.35;1.63;;;12.10;99.90;;;11.04;96.35;101491.03;4905123;28;20033;-81
2022/07/28 01:17:02;;;;;;;9.68;1.67;;;12.10;99.90;;;11.09;95.72;101491.69;4982310;28;20390;-82
2022/07/28 01:20:11;;;;;;;9.68;1.80;;;12.10;99.90;;;11.16;95.70;101493.19;4937095;28;20031;-81
2022/07/28 01:22:57;;;;;;;9.07;1.95;;;12.20;99.90;;;11.21;95.90;101498.28;4994811;28;20060;-81
2022/07/28 01:26:05;;;;;;;9.50;1.88;;;12.20;99.90;;;11.27;96.32;101496.31;4919437;28;20098;-80
2022/07/28 01:29:22;;;;;;;11.75;2.13;;;12.30;99.90;;;11.36;97.13;101496.84;4940037;28;20105;-81
2022/07/28 01:32:05;;;;;;;11.88;1.85;;;12.40;99.90;;;11.40;97.50;101501.09;4980045;28;20045;-81
2022/07/28 01:34:53;;;;;;;19.15;2.15;;;12.40;99.90;;;11.44;97.30;101506.19;4922453;28;20501;-81
2022/07/28 01:37:26;;;;;;;12.60;2.28;;;12.50;99.90;;;11.47;96.80;101507.88;4969661;28;20383;-80
2022/07/28 01:40:01;;;;;;;15.07;2.00;;;12.50;99.90;;;11.53;96.24;101512.91;4959823;28;20113;-82
2022/07/28 01:42:37;;;;;;;11.85;1.85;;;12.50;99.90;;;11.57;96.00;101511.88;4938121;28;20042;-80
2022/07/28 01:45:05;;;;;;;12.85;2.20;;;12.60;99.90;;;11.62;96.18;101507.28;4959120;28;20038;-81
2022/07/28 01:47:33;;;;;;;16.77;1.85;;;12.60;99.90;;;11.67;96.31;101510.59;4948169;28;20126;-80
2022/07/28 01:50:03;;;;;;;14.38;2.60;;;12.70;99.90;;;11.72;96.10;101506.94;4925208;28;20114;-80
2022/07/28 01:52:31;;;;;;;6.57;1.70;;;12.70;99.90;;;11.77;96.16;101504.97;4918223;28;20038;-81
2022/07/28 01:54:59;;;;;;;10.23;1.98;;;12.80;99.90;;;11.79;95.82;101500.47;4947987;28;20616;-81
2022/07/28 01:57:32;;;;;;;7.78;1.60;;;12.80;99.90;;;11.83;95.70;101499.44;4944641;28;21690;-81
2022/07/28 01:59:59;;;;;;;10.30;1.80;;;12.80;99.90;;;11.84;95.10;101496.75;4943186;28;20030;-81
2022/07/28 02:02:28;;;;;;;10.50;1.60;;;12.80;99.90;;;11.89;95.35;101504.53;4933120;28;20030;-81
2022/07/28 02:05:05;;;;;;;12.02;1.92;;;12.90;99.90;;;11.93;95.37;101500.00;4932476;28;20043;-81
2022/07/28 02:07:33;;;;;;;10.93;1.90;;;12.90;99.90;;;11.94;95.01;101491.13;4953492;28;20026;-81
2022/07/28 02:10:00;;;;;;;12.82;1.92;;;13.00;99.90;;;11.94;94.92;101492.00;4930220;28;20606;-80
2022/07/28 02:12:30;;;;;;;9.20;2.10;;;12.90;99.90;;;11.96;95.09;101484.03;4919940;28;20679;-81
2022/07/28 02:14:58;;;;;;;10.60;2.00;;;12.90;99.90;;;11.95;94.79;101492.88;4926583;28;20132;-81
2022/07/28 02:17:30;;;;;;;9.95;1.90;;;12.90;99.90;;;11.94;95.30;101492.00;4959545;28;20034;-81
2022/07/28 02:20:00;;;;;;;14.18;2.00;;;13.00;99.90;;;11.95;95.26;101493.72;4961506;28;20038;-81
2022/07/28 02:22:26;;;;;;;12.05;1.95;;;12.90;99.90;;;11.95;95.68;101485.81;4961876;28;20062;-81
2022/07/28 02:24:54;;;;;;;12.43;1.90;;;13.00;99.90;;;11.97;94.88;101488.41;4939137;28;20033;-81
2022/07/28 02:27:36;;;;;;;9.43;1.48;;;13.00;99.90;;;11.96;95.28;101492.78;4989957;28;20046;-81
2022/07/28 02:30:09;;;;;;;15.45;2.28;;;13.00;99.90;;;11.96;94.94;101484.03;4926089;28;20032;-80
2022/07/28 02:32:54;;;;;;;14.25;2.10;;;12.90;99.90;;;11.93;95.64;101490.28;4948032;28;20044;-81
2022/07/28 02:35:33;;;;;;;11.98;2.08;;;12.90;99.90;;;11.90;95.57;101491.28;4965840;28;20042;-80
2022/07/28 02:38:10;;;;;;;14.10;2.13;;;12.90;99.90;;;11.86;96.48;101488.78;4997690;28;20091;-80
2022/07/28 02:40:39;;;;;;;12.02;2.28;;;12.90;99.90;;;11.84;96.37;101490.63;4947772;28;20046;-81
2022/07/28 02:43:13;;;;;;;10.90;2.10;;;12.80;99.90;;;11.84;97.06;101501.19;4940978;28;20045;-80
2022/07/28 02:45:48;;;;;;;11.25;2.10;;;12.90;99.90;;;11.86;97.33;101501.97;4957035;28;20033;-81
2022/07/28 02:48:20;;;;;;;8.23;2.00;;;12.90;99.90;;;11.83;97.48;101499.44;4965526;28;20053;-81
2022/07/28 02:50:46;;;;;;;9.23;2.30;;;12.80;99.90;;;11.82;97.60;101501.22;4948682;28;20042;-81
2022/07/28 02:53:19;;;;;;;9.10;2.13;;;12.80;99.90;;;11.80;97.35;101500.44;4960999;28;20030;-81
2022/07/28 02:55:47;;;;;;;11.52;2.22;;;12.80;99.90;;;11.78;97.92;101502.28;4951903;28;20096;-81
2022/07/28 02:58:21;;;;;;;11.52;2.40;;;12.80;99.90;;;11.77;98.10;101500.56;4928517;28;20045;-81
2022/07/28 03:00:50;;;;;;;13.20;2.28;;;12.80;99.90;;;11.76;97.38;101505.91;4947830;28;20414;-80
2022/07/28 03:03:17;;;;;;;12.80;2.40;;;12.70;99.90;;;11.72;97.87;101518.34;4977425;28;20038;-81
2022/07/28 03:05:44;;;;;;;9.25;2.45;;;12.70;99.90;;;11.72;98.18;101512.22;4953227;28;20039;-81
2022/07/28 03:08:16;;;;;;;11.52;2.78;;;12.70;99.90;;;11.69;98.49;101519.31;4934900;28;21214;-81
2022/07/28 03:10:42;;;;;;;18.10;2.38;;;12.70;99.90;;;11.66;98.32;101516.81;4932157;28;20035;-81
2022/07/28 03:13:08;;;;;;;11.85;2.22;;;12.70;99.90;;;11.64;98.56;101515.13;4906831;28;20411;-81
2022/07/28 03:15:38;;;;;;;11.68;2.20;;;12.70;99.90;;;11.63;98.66;101513.41;4964378;28;20055;-82
2022/07/28 03:18:07;;;;;;;11.07;2.08;;;12.70;99.90;;;11.63;98.99;101516.06;4936860;28;20058;-82
2022/07/28 03:20:34;;;;;;;9.88;2.30;;;12.70;99.90;;;11.65;99.41;101516.88;4925623;28;20038;-80
2022/07/28 03:23:01;;;;;;;9.75;2.05;;;12.70;99.90;;;11.67;99.61;101515.88;4922890;28;20069;-80
2022/07/28 03:25:42;;;;;;;15.48;2.20;;;12.70;99.90;;;11.73;99.13;101519.19;4927612;28;20042;-81
2022/07/28 03:28:13;;;;;;;10.80;2.63;;;12.70;99.90;;;11.79;99.38;101529.50;4933445;28;20181;-81
2022/07/28 03:30:50;;;;;;;15.98;2.55;;;12.80;99.90;;;11.87;99.87;101532.72;4944668;28;20034;-80
2022/07/28 03:33:17;;;;;;;12.95;2.42;;;12.90;99.90;;;11.94;99.95;101536.84;4962641;28;20033;-82
2022/07/28 03:35:48;;;;;;;7.20;2.22;;;12.90;99.90;;;12.04;99.56;101540.84;4922202;28;20054;-81
2022/07/28 03:38:21;;;;;;;11.82;2.67;;;13.00;99.90;;;12.11;98.97;101549.38;4931982;28;20047;-81
2022/07/28 03:40:48;;;;;;;12.15;2.17;;;13.10;99.90;;;12.17;98.67;101540.38;4963309;28;20026;-80
2022/07/28 03:43:17;;;;;;;10.77;2.30;;;13.10;99.90;;;12.24;98.40;101549.75;4968904;28;20120;-81
2022/07/28 03:45:46;;;;;;;17.75;2.70;;;13.20;99.90;;;12.28;99.63;101554.00;4930847;28;20097;-81
2022/07/28 03:48:14;;;;;;;8.80;2.35;;;13.20;99.90;;;12.32;100.00;101551.16;4961588;28;20514;-81
2022/07/28 03:50:41;;;;;;;12.30;2.28;;;13.30;99.90;;;12.39;99.90;101557.06;4990345;28;20061;-81
2022/07/28 03:53:21;;;;;;;8.75;2.00;;;13.40;99.90;;;12.44;99.58;101556.88;4937764;28;20035;-82
2022/07/28 03:55:49;;;;;;;16.75;2.40;;;13.40;99.90;;;12.48;99.81;101551.41;4965919;23;20042;-80
2022/07/28 03:58:26;;;;;;;12.00;2.00;;;13.40;99.90;;;12.55;99.39;101561.69;4947705;28;20040;-82
2022/07/28 04:00:52;;;;;;;12.02;2.53;;;13.50;99.90;;;12.60;99.22;101552.69;4925289;28;20053;-80
2022/07/28 04:03:19;;;;;;;11.35;2.33;;;13.50;99.90;;;12.65;98.91;101558.63;4940763;28;20045;-80
2022/07/28 04:05:54;;;;;;;16.10;2.20;;;13.60;99.90;;;12.72;98.76;101562.75;4962896;28;20491;-82
2022/07/28 04:08:20;;;;;;;9.07;2.08;;;13.70;99.90;;;12.78;98.44;101561.59;4937676;28;20167;-80
2022/07/28 04:10:46;;;;;;;10.68;2.30;;;13.70;99.90;;;12.85;97.81;101562.19;4902607;28;20396;-82
2022/07/28 04:13:12;;;;;;;7.45;1.75;;;13.80;99.90;;;12.91;97.64;101570.75;4973058;28;20120;-82
2022/07/28 04:15:38;;;;;;;11.60;2.05;;;13.80;99.90;;;12.96;96.75;101567.91;4945936;28;21225;-81
2022/07/28 04:18:07;;;;;;;14.68;2.30;;;13.90;99.90;;;13.02;96.49;101570.25;4943306;28;20034;-82
2022/07/28 04:20:33;;;;;;;11.45;2.20;;;13.90;99.90;;;13.03;96.90;101568.50;4914995;28;20034;-81
2022/07/28 04:22:59;;;;;;;12.52;2.30;;;14.00;99.90;;;13.08;96.22;101569.13;4932709;28;20511;-80
2022/07/28 04:25:26;;;;;;;8.68;1.92;;;14.00;99.90;;;13.13;96.01;101573.31;4949747;28;20048;-82
2022/07/28 04:27:53;;;;;;;11.82;2.63;;;14.10;99.90;;;13.17;95.71;101576.66;4922865;28;20028;-80
2022/07/28 04:30:24;;;;;;;14.00;2.28;;;14.10;99.90;;;13.20;95.56;101571.25;4947317;28;20034;-82
2022/07/28 04:32:52;;;;;;;12.48;2.33;;;14.10;99.90;;;13.26;95.25;101570.09;4925790;28;20026;-81
2022/07/28 04:35:19;;;;;;;11.82;2.35;;;14.20;99.90;;;13.31;95.83;101582.25;4967345;23;20513;-81
2022/07/28 04:37:50;;;;;;;10.90;1.73;;;14.30;99.90;;;13.39;95.09;101581.03;4973930;28;20029;-81
2022/07/28 04:40:17;;;;;;;12.95;2.10;;;14.30;99.90;;;13.47;95.22;101582.41;4962675;28;20035;-82
2022/07/28 04:42:43;;;;;;;15.25;2.13;;;14.40;99.90;;;13.54;94.79;101588.28;4957602;28;20049;-81
2022/07/28 04:45:11;;;;;;;8.35;1.85;;;14.40;99.90;;;13.62;93.85;101583.50;4945614;28;20054;-81
2022/07/28 04:47:41;;;;;;;9.20;1.92;;;14.50;99.90;;;13.68;93.02;101592.97;4960475;28;20045;-81
2022/07/28 04:50:10;;;;;;;15.98;2.28;;;14.60;99.90;;;13.71;93.17;101601.63;4911679;28;20039;-82
2022/07/28 04:52:37;;;;;;;12.80;2.15;;;14.60;99.90;;;13.79;93.02;101597.75;4932881;28;20086;-83
2022/07/28 04:55:11;;;;;;;13.15;2.05;;;14.70;99.90;;;13.84;92.80;101601.03;4915533;28;20073;-81
2022/07/28 04:57:37;;;;;;;9.02;2.20;;;14.70;99.90;;;13.91;91.52;101599.84;4932245;28;20037;-81
2022/07/28 05:00:11;;;;;;;8.18;1.77;;;14.80;99.90;;;13.97;91.47;101596.03;4951672;28;20112;-81
2022/07/28 05:02:37;;;;;;;15.05;1.90;;;14.80;99.90;;;14.02;90.70;101597.53;4970016;28;20526;-81
2022/07/28 05:05:03;;;;;;;10.85;2.03;;;14.90;99.90;;;14.05;90.36;101609.78;4900885;28;20038;-81
2022/07/28 05:07:29;;;;;;;13.50;2.17;;;14.90;99.90;;;14.08;90.41;101605.22;4914421;28;20071;-81
2022/07/28 05:09:55;;;;;;;9.23;1.92;;;15.00;99.90;;;14.14;89.96;101611.97;4938607;28;20441;-81
2022/07/28 05:12:20;;;;;;;;;;;15.00;99.90;;;14.17;89.30;101606.56;4941217;28;20030;-81
2022/07/28 05:14:46;;;;;;;11.65;2.58;;;15.10;99.90;;;14.24;89.27;101612.41;4947335;28;19921;-81
2022/07/28 05:17:21;;;;;;;12.80;2.03;;;15.10;99.90;;;14.30;88.73;101604.19;4920640;28;20097;-81
2022/07/28 05:19:47;;;;;;;10.23;2.03;;;15.20;99.90;;;14.38;88.39;101599.34;4955086;28;20383;-81
2022/07/28 05:22:12;;;;;;;8.80;2.38;;;15.20;99.90;;;14.47;87.85;101598.91;4937436;28;20046;-82
2022/07/28 05:24:38;;;;;;;6.80;2.22;;;15.30;99.90;;;14.56;87.46;101614.38;4905470;28;20050;-80
2022/07/28 05:27:11;;;;;;;;;;;15.30;99.90;;;14.57;87.14;101610.78;4959232;28;20059;-81
2022/07/28 05:29:40;;;;;;;7.78;2.35;;;15.50;99.90;;;14.68;86.60;101612.06;4975506;28;20327;-81
2022/07/28 05:32:07;;;;;;;10.25;1.85;;;15.50;99.90;;;14.74;85.08;101614.41;4898715;28;20529;-81
2022/07/28 05:34:39;;;;;;;12.43;2.00;;;15.60;99.90;;;14.85;84.10;101616.53;4944119;28;20070;-82
2022/07/28 05:37:06;;;;;;;13.32;2.20;;;15.70;99.90;;;14.96;83.75;101615.03;4937093;28;20041;-83
2022/07/28 05:39:32;;;;;;;14.80;1.98;;;15.80;99.90;;;15.07;82.83;101629.56;4920143;28;20159;-81
2022/07/28 05:41:59;;;;;;;17.40;2.38;;;15.90;99.90;;;15.14;82.45;101622.97;4948185;28;20186;-81
2022/07/28 05:44:30;;;;;;;15.90;2.30;;;16.00;99.90;;;15.23;81.79;101635.78;4922281;28;20038;-81
2022/07/28 05:46:56;;;;;;;9.43;2.05;;;16.00;99.90;;;15.31;81.38;101625.66;4940673;28;20031;-81
2022/07/28 05:49:22;;;;;;;10.88;1.85;;;16.10;99.90;;;15.37;81.44;101627.94;4924958;28;20053;-81
2022/07/28 05:51:48;;;;;;;13.32;2.30;;;16.20;99.90;;;15.49;80.94;101628.28;4953051;28;20042;-80
2022/07/28 05:54:14;;;;;;;8.32;2.17;;;16.30;99.90;;;15.57;79.68;101639.31;4964215;28;20061;-81
2022/07/28 05:56:40;;;;;;;8.27;1.83;;;16.40;99.90;;;15.63;80.34;101641.66;4956315;28;20038;-81
2022/07/28 05:59:09;;;;;;;;;;;16.40;99.90;;;15.71;80.57;101643.91;4947423;28;20086;-81
2022/07/28 06:01:37;;;;;;;11.30;2.33;;;16.50;99.90;;;15.77;80.08;101649.78;4942785;28;20297;-81
2022/07/28 06:04:03;;;;;;;9.35;1.70;;;16.60;99.90;;;15.85;78.81;101648.50;4949862;28;20125;-82
2022/07/28 06:06:29;;;;;;;9.20;1.95;;;16.60;99.90;;;15.90;78.92;101646.47;4915062;28;20046;-80
2022/07/28 06:08:55;;;;;;;10.85;2.00;;;16.70;99.90;;;15.96;77.71;101651.41;4929142;28;21304;-81
2022/07/28 06:11:28;;;;;;;;;;;16.70;99.90;;;16.05;77.78;101655.41;4930218;28;20042;-81
2022/07/28 06:13:54;;;;;;;8.15;1.85;;;16.80;99.90;;;16.12;78.94;101656.78;4953281;28;19945;-80
2022/07/28 06:16:21;;;;;;;9.60;2.00;;;16.90;99.90;;;16.23;78.00;101658.84;4956184;28;20121;-80
2022/07/28 06:18:51;;;;;;;12.13;2.47;;;17.20;99.90;;;16.36;77.10;101667.84;4913400;28;20038;-81
2022/07/28 06:21:19;;;;;;;11.43;2.15;;;17.10;99.90;;;16.47;76.42;101665.41;4940105;28;20074;-81
2022/07/28 06:23:45;;;;;;;10.57;1.67;;;17.20;99.90;;;16.55;75.38;101662.34;4961170;28;20104;-81
2022/07/28 06:26:11;;;;;;;;;;;17.20;99.90;;;16.45;72.76;101667.31;4959073;28;20688;-81
2022/07/28 06:28:37;;;;;;;8.93;1.73;;;17.30;99.90;;;16.54;74.87;101669.47;4948652;28;19952;-81
2022/07/28 06:31:02;;;;;;;;;;;17.30;99.90;;;16.65;74.91;101671.53;4957928;28;20027;-82
2022/07/28 06:33:28;;;;;;;5.57;1.92;;;17.30;99.90;;;16.58;72.16;101667.47;4958864;28;19925;-81
2022/07/28 06:35:57;;;;;;;;;;;18.00;99.90;;;16.64;72.50;101672.44;4969852;28;20115;-82
2022/07/28 06:38:24;;;;;;;5.97;1.30;;;17.40;99.90;;;16.83;72.99;101672.28;4945970;28;19925;-82
2022/07/28 06:40:50;;;;;;;7.43;1.50;;;17.50;99.90;;;16.96;71.70;101685.72;4917059;28;20054;-80
2022/07/28 06:43:16;;;;;;;8.25;1.30;;;17.60;99.90;;;17.04;70.56;101688.81;4906222;28;20199;-80
2022/07/28 06:45:43;;;;;;;;;;;17.70;99.90;;;17.06;70.11;101688.69;4922428;28;20031;-80
2022/07/28 06:48:17;;;;;;;9.35;1.50;;;17.80;99.90;;;17.09;70.24;101691.19;4913897;28;19969;-81
2022/07/28 06:50:43;;;;;;;8.93;1.58;;;17.80;99.90;;;17.20;70.40;101699.41;4975974;28;20077;-81
2022/07/28 06:53:09;;;;;;;5.30;1.48;;;17.90;99.90;;;17.37;70.69;101701.06;4906305;28;20042;-81
2022/07/28 06:55:35;;;;;;;;;;;18.00;99.90;;;17.43;68.17;101698.88;4929688;28;20058;-82
2022/07/28 06:58:11;;;;;;;8.55;2.05;;;18.20;99.90;;;17.57;68.90;101699.84;4928911;28;19910;-80
2022/07/28 07:00:37;;;;;;;4.60;1.37;;;18.20;99.90;;;17.52;68.21;101702.81;4952979;28;20153;-81
2022/07/28 07:03:03;;;;;;;;;;;18.20;99.90;;;17.49;67.42;101694.97;4985618;28;20741;-81
2022/07/28 07:05:33;;;;;;;9.32;1.40;;;18.20;99.90;;;17.46;67.06;101703.16;4907071;28;19925;-81
2022/07/28 07:08:04;;;;;;;14.35;1.88;;;18.20;99.90;;;17.33;66.13;101708.38;4937639;28;20041;-80
2022/07/28 07:10:30;;;;;;;5.05;1.23;;;18.20;99.90;;;17.39;66.30;101705.34;4922092;28;20031;-80
2022/07/28 07:12:56;;;;;;;6.90;1.13;;;18.10;99.90;;;17.37;65.49;101701.91;4938480;28;20117;-81
2022/07/28 07:15:22;;;;;;;;;;;18.10;99.90;;;17.55;65.37;101709.75;4932391;28;20181;-80
2022/07/28 07:17:49;;;;;;;7.70;1.35;;;18.30;99.90;;;17.73;65.34;101711.31;4937370;28;20906;-81
2022/07/28 07:20:15;;;;;;;4.63;1.00;;;18.40;99.90;;;17.90;65.10;101709.41;4929427;28;20031;-80
2022/07/28 07:22:42;;;;;;;;;;;18.50;99.90;;;17.82;63.70;101701.91;4941744;28;20093;-80
2022/07/28 07:25:11;;;;;;;8.48;1.77;;;18.60;99.90;;;18.07;62.98;101714.56;4955302;28;19977;-81
2022/07/28 07:27:44;;;;;;;8.25;1.30;;;18.80;99.90;;;18.53;62.43;101725.00;4959201;28;20120;-81
2022/07/28 07:30:13;;;;;;;10.25;1.48;;;19.20;99.90;;;19.06;62.21;101728.63;4958930;28;20404;-79
2022/07/28 07:32:39;;;;;;;9.07;1.50;;;19.60;99.90;;;19.47;59.24;101729.47;4933905;28;20042;-80
2022/07/28 07:35:09;;;;;;;6.05;1.90;;;19.90;99.90;;;19.83;58.19;101728.78;4958370;28;20046;-82
2022/07/28 07:37:35;;;;;;;9.55;1.65;;;20.30;99.90;;;20.11;56.75;101726.84;4954192;28;20034;-81
2022/07/28 07:40:02;;;;;;;;;;;20.30;99.90;;;20.06;53.08;101735.19;4922413;28;20056;-81
2022/07/28 07:42:28;;;;;;;6.32;2.00;;;20.60;97.70;;;20.26;54.89;101733.78;4935056;28;19922;-81
2022/07/28 07:44:54;;;;;;;9.02;1.98;;;20.80;97.90;;;20.72;53.83;101736.78;4938606;28;20113;-81
2022/07/28 07:47:26;;;;;;;5.43;1.80;;;21.10;96.40;;;21.07;52.53;101744.88;4926939;28;22211;-80
2022/07/28 07:49:52;;;;;;;6.90;2.00;;;21.50;95.90;;;21.58;51.50;101743.75;4938740;28;20035;-80
2022/07/28 07:52:18;;;;;;;5.32;1.95;;;21.60;95.40;;;20.91;51.64;101742.50;4948080;28;20109;-81
2022/07/28 07:54:44;;;;;;;7.20;1.75;;;21.40;95.70;;;20.62;53.02;101736.59;4961913;28;20407;-82
2022/07/28 07:57:10;;;;;;;5.10;1.52;;;21.10;95.00;;;20.02;53.25;101748.88;4949163;28;20136;-80
2022/07/28 07:59:39;;;;;;;8.63;1.50;;;20.60;95.20;;;19.33;54.32;101751.78;4940350;28;20042;-80
2022/07/28 08:02:07;;;;;;;5.88;1.65;;;20.40;96.30;;;19.56;55.16;101752.88;4989618;28;20038;-79
2022/07/28 08:04:33;;;;;;;4.72;1.30;;;20.30;97.00;;;19.54;55.20;101753.94;4916637;28;20039;-78
2022/07/28 08:06:59;;;;;;;6.22;1.60;;;20.30;97.10;;;19.60;54.98;101753.53;4942862;28;20038;-77
2022/07/28 08:09:24;;;;;;;;;;;20.30;96.50;;;19.37;52.84;101757.75;4951667;28;20045;-80
2022/07/28 08:11:50;;;;;;;8.13;1.98;;;20.00;96.10;;;19.08;54.73;101759.72;4974168;28;20851;-79
2022/07/28 08:14:18;;;;;;;;;;;19.90;96.80;;;18.94;55.13;101755.28;4939218;28;20035;-79
2022/07/28 08:16:46;;;;;;;6.90;1.70;;;19.80;96.30;;;19.00;55.38;101761.06;4932097;28;19961;-79
2022/07/28 08:19:12;;;;;;;4.90;1.80;;;19.70;96.80;;;18.80;55.80;101753.53;4953334;28;20042;-79
2022/07/28 08:21:38;;;;;;;10.07;2.28;;;19.70;97.30;;;19.02;55.87;101761.81;4964474;28;20042;-78
2022/07/28 08:24:04;;;;;;;;;;;19.70;98.20;;;19.47;54.35;101764.19;4961508;28;20530;-78
2022/07/28 08:26:30;;;;;;;8.63;1.50;;;20.10;96.90;;;19.63;54.17;101762.22;4926002;28;19914;-78
2022/07/28 08:29:11;;;;;;;5.45;1.42;;;20.30;96.30;;;19.94;53.13;101764.63;4946507;28;20050;-79
2022/07/28 08:31:40;;;;;;;8.82;1.40;;;20.40;95.90;;;19.82;53.11;101775.16;4940120;28;20030;-77
2022/07/28 08:34:06;;;;;;;7.53;1.27;;;20.30;95.70;;;19.62;53.62;101773.84;4963602;28;20035;-78
2022/07/28 08:36:32;;;;;;;6.35;1.30;;;20.30;95.90;;;19.51;53.97;101770.19;4952411;28;20030;-77
2022/07/28 08:38:57;;;;;;;3.72;1.35;;;20.30;95.70;;;19.54;53.36;101775.31;4936328;28;20048;-78
2022/07/28 08:41:49;;;;;;;4.18;1.23;;;20.20;96.80;;;19.55;54.82;101779.72;4933256;28;20403;-78
2022/07/28 08:44:20;;;;;;;5.78;1.83;;;20.20;96.60;;;19.54;54.19;101784.19;4949323;28;20031;-78
2022/07/28 08:46:56;;;;;;;7.90;1.42;;;20.30;96.50;;;19.64;54.27;101785.28;4949444;28;20049;-78
2022/07/28 08:49:22;;;;;;;7.18;1.40;;;20.30;96.00;;;19.65;53.29;101787.00;4931460;28;20271;-78
2022/07/28 08:51:51;;;;;;;10.18;1.60;;;20.30;95.90;;;19.82;53.47;101788.53;4935941;28;20038;-79
2022/07/28 08:54:26;;;;;;;10.18;1.95;;;20.50;96.10;;;19.99;52.95;101784.69;4974833;28;20113;-82
2022/07/28 08:56:53;;;;;;;5.78;1.38;;;20.50;96.30;;;19.99;53.63;101783.84;4938925;28;20694;-78
2022/07/28 08:59:19;;;;;;;7.85;1.60;;;20.60;95.80;;;20.17;52.96;101789.72;4939699;28;20053;-78
2022/07/28 09:01:52;;;;;;;4.13;1.52;;;20.80;95.70;;;20.68;51.76;101792.34;4953971;28;20224;-78
2022/07/28 09:04:20;;;;;;;6.35;1.55;;;21.20;95.00;;;21.30;49.67;101796.72;4973055;28;21232;-79
2022/07/28 09:06:47;;;;;;;4.22;1.30;;;21.70;94.20;;;21.81;48.20;101800.91;4968334;28;20518;-79
2022/07/28 09:09:22;;;;;;;5.35;1.52;;;22.20;93.30;;;22.03;46.96;101805.47;4985699;28;20050;-79
2022/07/28 09:11:48;;;;;;;7.00;1.67;;;22.40;92.70;;;22.21;46.89;101790.63;4977225;28;20043;-79
2022/07/28 09:14:14;;;;;;;8.95;1.52;;;22.60;93.10;;;22.49;46.75;101797.34;4933708;28;20513;-79
2022/07/28 09:16:46;;;;;;;5.45;1.27;;;22.80;92.80;;;22.46;47.15;101804.78;4939831;28;20037;-78
2022/07/28 09:19:11;;;;;;;5.28;1.30;;;22.90;92.70;;;22.65;46.72;101807.69;4942237;28;20129;-79
2022/07/28 09:21:38;;;;;;;5.50;1.50;;;23.00;91.30;;;22.49;46.16;101804.56;4933322;28;20105;-78
2022/07/28 09:24:04;;;;;;;6.15;1.55;;;22.90;91.70;;;22.24;47.52;101813.69;4938260;28;20044;-79
2022/07/28 09:26:30;;;;;;;4.15;1.20;;;22.90;92.10;;;22.39;47.18;101809.78;4949912;28;20035;-78
2022/07/28 09:29:07;;;;;;;6.18;1.35;;;22.90;92.10;;;22.40;47.11;101814.19;4958262;28;20026;-79
2022/07/28 09:31:33;;;;;;;;;;;22.90;92.50;;;22.15;45.24;101815.22;4965159;28;20189;-79
2022/07/28 09:34:07;;;;;;;4.88;1.38;;;;;;;22.43;47.47;101813.94;4970452;28;19918;-79
2022/07/28 09:36:40;;;;;;;8.52;1.15;;;23.00;92.20;;;22.82;46.08;101818.91;4942793;28;20042;-79
2022/07/28 09:39:10;;;;;;;4.88;1.42;;;23.30;91.90;;;23.22;45.70;101826.38;4930047;28;20277;-79
2022/07/28 09:41:56;;;;;;;9.60;1.48;;;23.60;90.70;;;23.48;44.31;101835.84;4938954;28;20048;-80
2022/07/28 09:44:25;;;;;;;7.72;1.50;;;23.90;91.60;;;23.85;44.66;101830.06;4953275;28;20992;-79
2022/07/28 09:46:55;;;;;;;8.02;1.48;;;24.10;90.40;;;23.97;43.92;101838.03;4972655;28;20476;-79
2022/07/28 09:49:41;;;;;;;3.95;0.88;;;24.10;90.20;;;23.71;44.55;101833.03;4919449;28;20034;-79
2022/07/28 09:52:13;;;;;;;4.28;1.15;;;24.00;89.60;;;23.28;44.95;101823.19;4937281;28;20058;-79
2022/07/28 09:54:57;;;;;;;6.18;1.17;;;23.70;90.60;;;22.76;45.66;101825.59;4948066;28;20436;-77
2022/07/28 09:57:31;;;;;;;5.20;1.20;;;23.30;90.60;;;22.37;46.42;101829.66;4945943;28;20030;-78
2022/07/28 10:00:06;;;;;;;6.82;1.40;;;23.00;91.10;;;21.98;47.03;101823.75;4963413;28;20387;-80
2022/07/28 10:02:34;;;;;;;8.05;1.25;;;22.60;91.80;;;21.67;48.32;101815.38;4960622;28;20039;-78
2022/07/28 10:05:03;;;;;;;5.20;1.00;;;22.50;92.00;;;21.58;48.65;101826.81;4942662;28;20042;-79
2022/07/28 10:07:30;;;;;;;5.78;1.25;;;22.40;91.80;;;21.79;48.12;101825.19;4967326;28;20552;-79
2022/07/28 10:10:11;;;;;;;11.23;1.70;;;22.50;91.60;;;22.02;46.79;101827.91;4941934;28;20039;-79
2022/07/28 10:12:37;;;;;;;5.25;1.25;;;22.70;92.50;;;22.47;47.33;101827.97;4936942;28;20109;-78
2022/07/28 10:18:06;;;;;;;3.60;1.08;;;23.40;91.60;;;23.36;45.61;101842.22;4956596;28;20045;-79
2022/07/28 10:20:33;;;;;;;6.00;1.30;;;23.70;91.10;;;23.63;44.86;101836.38;4948311;28;20122;-79
2022/07/28 10:23:09;;;;;;;5.75;1.20;;;24.00;90.60;;;23.86;44.27;101831.75;4916552;28;20076;-78
2022/07/28 10:25:39;;;;;;;5.50;1.40;;;24.20;89.80;;;23.85;44.06;101824.69;4966345;28;20053;-79
2022/07/28 10:28:07;;;;;;;3.72;0.90;;;24.30;88.90;;;23.72;43.82;101832.91;4960767;28;20033;-79